sensor_id;sensor_type;location;lat;lon;timestamp;pressure;altitude;pressure_sealevel;temperature;humidity
52249;BME280;38541;48.130;8.378;2023-04-27T00:00:58;92765.69;;;7.33;67.96
52249;BME280;38541;48.130;8.378;2023-04-27T00:03:25;92759.69;;;7.32;68.32
52249;BME280;38541;48.130;8.378;2023-04-27T00:05:52;92753.34;;;7.28;67.67
52249;BME280;38541;48.130;8.378;2023-04-27T00:08:18;92759.69;;;7.32;68.23
52249;BME280;38541;48.130;8.378;2023-04-27T00:10:45;92756.34;;;7.37;68.70
52249;BME280;38541;48.130;8.378;2023-04-27T00:13:11;92750.34;;;7.36;68.79
52249;BME280;38541;48.130;8.378;2023-04-27T00:15:38;92742.91;;;7.28;68.33
52249;BME280;38541;48.130;8.378;2023-04-27T00:18:04;92744.56;;;7.34;68.14
52249;BME280;38541;48.130;8.378;2023-04-27T00:20:31;92746.63;;;7.32;67.94
52249;BME280;38541;48.130;8.378;2023-04-27T00:22:59;92741.63;;;7.31;68.23
52249;BME280;38541;48.130;8.378;2023-04-27T00:25:25;92739.72;;;7.26;68.16
52249;BME280;38541;48.130;8.378;2023-04-27T00:27:51;92736.41;;;7.31;68.67
52249;BME280;38541;48.130;8.378;2023-04-27T00:30:18;92735.91;;;7.34;68.10
52249;BME280;38541;48.130;8.378;2023-04-27T00:32:45;92737.75;;;7.33;67.62
52249;BME280;38541;48.130;8.378;2023-04-27T00:35:14;92735.38;;;7.32;67.30
52249;BME280;38541;48.130;8.378;2023-04-27T00:37:41;92731.66;;;7.27;67.46
52249;BME280;38541;48.130;8.378;2023-04-27T00:40:08;92735.63;;;7.30;68.02
52249;BME280;38541;48.130;8.378;2023-04-27T00:42:35;92716.75;;;7.28;67.57
52249;BME280;38541;48.130;8.378;2023-04-27T00:45:02;92722.97;;;7.22;68.15
52249;BME280;38541;48.130;8.378;2023-04-27T00:47:29;92720.84;;;7.19;68.03
52249;BME280;38541;48.130;8.378;2023-04-27T00:49:56;92722.66;;;7.18;68.22
52249;BME280;38541;48.130;8.378;2023-04-27T00:52:24;92724.97;;;7.14;68.85
52249;BME280;38541;48.130;8.378;2023-04-27T00:54:52;92726.06;;;7.19;68.67
52249;BME280;38541;48.130;8.378;2023-04-27T00:57:19;92720.34;;;7.22;68.24
52249;BME280;38541;48.130;8.378;2023-04-27T00:59:46;92727.22;;;7.28;68.02
52249;BME280;38541;48.130;8.378;2023-04-27T01:02:13;92727.53;;;7.32;68.36
52249;BME280;38541;48.130;8.378;2023-04-27T01:04:40;92728.06;;;7.34;68.38
52249;BME280;38541;48.130;8.378;2023-04-27T01:07:06;92732.75;;;7.32;68.87
52249;BME280;38541;48.130;8.378;2023-04-27T01:09:33;92729.09;;;7.33;68.55
52249;BME280;38541;48.130;8.378;2023-04-27T01:11:59;92717.56;;;7.28;68.62
52249;BME280;38541;48.130;8.378;2023-04-27T01:14:26;92720.94;;;7.29;68.79
52249;BME280;38541;48.130;8.378;2023-04-27T01:16:53;92722.56;;;7.30;68.37
52249;BME280;38541;48.130;8.378;2023-04-27T01:19:19;92726.50;;;7.33;68.52
52249;BME280;38541;48.130;8.378;2023-04-27T01:21:46;92723.88;;;7.33;68.34
52249;BME280;38541;48.130;8.378;2023-04-27T01:24:12;92729.97;;;7.38;68.78
52249;BME280;38541;48.130;8.378;2023-04-27T01:26:39;92723.66;;;7.34;68.57
52249;BME280;38541;48.130;8.378;2023-04-27T01:29:05;92726.25;;;7.34;68.47
52249;BME280;38541;48.130;8.378;2023-04-27T01:31:32;92725.47;;;7.34;68.55
52249;BME280;38541;48.130;8.378;2023-04-27T01:33:58;92717.88;;;7.32;68.13
52249;BME280;38541;48.130;8.378;2023-04-27T01:36:25;92724.69;;;7.33;68.79
52249;BME280;38541;48.130;8.378;2023-04-27T01:38:54;92725.19;;;7.30;68.40
52249;BME280;38541;48.130;8.378;2023-04-27T01:41:21;92723.56;;;7.29;68.59
52249;BME280;38541;48.130;8.378;2023-04-27T01:43:47;92723.34;;;7.31;68.61
52249;BME280;38541;48.130;8.378;2023-04-27T01:46:13;92726.75;;;7.31;68.64
52249;BME280;38541;48.130;8.378;2023-04-27T01:48:41;92728.34;;;7.32;69.45
52249;BME280;38541;48.130;8.378;2023-04-27T01:51:09;92732.22;;;7.30;69.30
52249;BME280;38541;48.130;8.378;2023-04-27T01:53:36;92729.28;;;7.26;68.49
52249;BME280;38541;48.130;8.378;2023-04-27T01:56:02;92736.09;;;7.27;69.10
52249;BME280;38541;48.130;8.378;2023-04-27T01:58:31;92729.81;;;7.28;69.12
52249;BME280;38541;48.130;8.378;2023-04-27T02:00:58;92732.44;;;7.28;69.53
52249;BME280;38541;48.130;8.378;2023-04-27T02:03:24;92726.94;;;7.24;69.29
52249;BME280;38541;48.130;8.378;2023-04-27T02:05:51;92721.69;;;7.24;69.13
52249;BME280;38541;48.130;8.378;2023-04-27T02:08:18;92728.50;;;7.25;68.56
52249;BME280;38541;48.130;8.378;2023-04-27T02:10:44;92730.31;;;7.25;69.10
52249;BME280;38541;48.130;8.378;2023-04-27T02:13:11;92729.75;;;7.23;69.28
52249;BME280;38541;48.130;8.378;2023-04-27T02:15:37;92729.75;;;7.23;69.28
52249;BME280;38541;48.130;8.378;2023-04-27T02:18:04;92733.97;;;7.24;69.17
52249;BME280;38541;48.130;8.378;2023-04-27T02:20:31;92735.53;;;7.25;68.82
52249;BME280;38541;48.130;8.378;2023-04-27T02:22:59;92742.34;;;7.26;69.23
52249;BME280;38541;48.130;8.378;2023-04-27T02:25:27;92741.03;;;7.23;69.95
52249;BME280;38541;48.130;8.378;2023-04-27T02:27:54;92735.00;;;7.23;69.79
52249;BME280;38541;48.130;8.378;2023-04-27T02:30:21;92728.50;;;7.25;69.82
52249;BME280;38541;48.130;8.378;2023-04-27T02:32:48;92729.75;;;7.23;69.72
52249;BME280;38541;48.130;8.378;2023-04-27T02:35:15;92737.06;;;7.21;69.74
52249;BME280;38541;48.130;8.378;2023-04-27T02:37:42;92740.38;;;7.16;70.37
52249;BME280;38541;48.130;8.378;2023-04-27T02:40:10;92743.25;;;7.14;70.16
52249;BME280;38541;48.130;8.378;2023-04-27T02:42:36;92742.22;;;7.16;70.28
52249;BME280;38541;48.130;8.378;2023-04-27T02:45:09;92752.91;;;7.14;69.99
52249;BME280;38541;48.130;8.378;2023-04-27T02:47:36;92744.91;;;7.21;69.86
52249;BME280;38541;48.130;8.378;2023-04-27T02:50:04;92741.50;;;7.20;70.26
52249;BME280;38541;48.130;8.378;2023-04-27T02:52:33;92746.47;;;7.22;69.48
52249;BME280;38541;48.130;8.378;2023-04-27T02:54:59;92746.41;;;7.17;69.68
52249;BME280;38541;48.130;8.378;2023-04-27T02:57:27;92742.78;;;7.18;69.72
52249;BME280;38541;48.130;8.378;2023-04-27T02:59:53;92744.91;;;7.21;70.13
52249;BME280;38541;48.130;8.378;2023-04-27T03:02:20;92741.03;;;7.23;70.27
52249;BME280;38541;48.130;8.378;2023-04-27T03:04:51;92742.91;;;7.28;69.83
52249;BME280;38541;48.130;8.378;2023-04-27T03:07:18;92740.28;;;7.28;69.80
52249;BME280;38541;48.130;8.378;2023-04-27T03:09:45;92745.50;;;7.28;69.54
52249;BME280;38541;48.130;8.378;2023-04-27T03:12:11;92734.75;;;7.24;69.95
52249;BME280;38541;48.130;8.378;2023-04-27T03:14:38;92738.09;;;7.20;70.39
52249;BME280;38541;48.130;8.378;2023-04-27T03:17:04;92737.59;;;7.23;70.09
52249;BME280;38541;48.130;8.378;2023-04-27T03:19:31;92744.97;;;7.26;70.12
52249;BME280;38541;48.130;8.378;2023-04-27T03:21:57;92743.94;;;7.27;70.23
52249;BME280;38541;48.130;8.378;2023-04-27T03:24:24;92744.47;;;7.29;70.16
52249;BME280;38541;48.130;8.378;2023-04-27T03:26:51;92730.84;;;7.27;70.08
52249;BME280;38541;48.130;8.378;2023-04-27T03:29:19;92737.97;;;7.32;70.06
52249;BME280;38541;48.130;8.378;2023-04-27T03:31:46;92740.84;;;7.30;69.71
52249;BME280;38541;48.130;8.378;2023-04-27T03:34:13;92738.47;;;7.28;69.92
52249;BME280;38541;48.130;8.378;2023-04-27T03:36:40;92737.13;;;7.26;70.43
52249;BME280;38541;48.130;8.378;2023-04-27T03:39:08;92738.25;;;7.30;70.12
52249;BME280;38541;48.130;8.378;2023-04-27T03:41:35;92738.78;;;7.32;70.26
52249;BME280;38541;48.130;8.378;2023-04-27T03:44:02;92734.59;;;7.31;70.18
52249;BME280;38541;48.130;8.378;2023-04-27T03:46:28;92738.31;;;7.35;70.71
52249;BME280;38541;48.130;8.378;2023-04-27T03:48:55;92731.00;;;7.37;70.55
52249;BME280;38541;48.130;8.378;2023-04-27T03:51:22;92735.19;;;7.38;70.47
52249;BME280;38541;48.130;8.378;2023-04-27T03:53:49;92735.69;;;7.35;71.06
52249;BME280;38541;48.130;8.378;2023-04-27T03:56:17;92737.22;;;7.31;71.01
52249;BME280;38541;48.130;8.378;2023-04-27T03:58:44;92740.59;;;7.32;70.84
52249;BME280;38541;48.130;8.378;2023-04-27T04:01:19;92747.66;;;7.31;70.70
52249;BME280;38541;48.130;8.378;2023-04-27T04:03:48;92751.06;;;7.32;70.84
52249;BME280;38541;48.130;8.378;2023-04-27T04:06:16;92748.97;;;7.34;70.58
52249;BME280;38541;48.130;8.378;2023-04-27T04:08:44;92746.69;;;7.37;71.19
52249;BME280;38541;48.130;8.378;2023-04-27T04:11:11;92745.88;;;7.37;70.96
52249;BME280;38541;48.130;8.378;2023-04-27T04:13:38;92752.41;;;7.34;71.08
52249;BME280;38541;48.130;8.378;2023-04-27T04:16:07;92747.19;;;7.34;70.77
52249;BME280;38541;48.130;8.378;2023-04-27T04:18:35;92742.72;;;7.35;71.48
52249;BME280;38541;48.130;8.378;2023-04-27T04:21:03;92751.44;;;7.40;71.16
52249;BME280;38541;48.130;8.378;2023-04-27T04:23:30;92749.34;;;7.42;71.15
52249;BME280;38541;48.130;8.378;2023-04-27T04:25:58;92749.03;;;7.39;71.16
52249;BME280;38541;48.130;8.378;2023-04-27T04:28:29;92744.63;;;7.39;71.15
52249;BME280;38541;48.130;8.378;2023-04-27T04:30:56;92745.44;;;7.40;70.98
52249;BME280;38541;48.130;8.378;2023-04-27T04:33:24;92737.00;;;7.38;71.03
52249;BME280;38541;48.130;8.378;2023-04-27T04:35:52;92739.94;;;7.41;70.89
52249;BME280;38541;48.130;8.378;2023-04-27T04:38:19;92745.44;;;7.40;71.25
52249;BME280;38541;48.130;8.378;2023-04-27T04:40:47;92737.31;;;7.41;70.61
52249;BME280;38541;48.130;8.378;2023-04-27T04:43:14;92745.16;;;7.41;71.20
52249;BME280;38541;48.130;8.378;2023-04-27T04:45:41;92737.88;;;7.43;71.14
52249;BME280;38541;48.130;8.378;2023-04-27T04:48:08;92741.28;;;7.44;71.08
52249;BME280;38541;48.130;8.378;2023-04-27T04:50:35;92736.84;;;7.45;70.92
52249;BME280;38541;48.130;8.378;2023-04-27T04:53:02;92745.78;;;7.49;71.00
52249;BME280;38541;48.130;8.378;2023-04-27T04:55:30;92746.34;;;7.51;70.87
52249;BME280;38541;48.130;8.378;2023-04-27T04:57:56;92740.84;;;7.52;71.08
52249;BME280;38541;48.130;8.378;2023-04-27T05:00:26;92754.25;;;7.56;70.96
52249;BME280;38541;48.130;8.378;2023-04-27T05:02:53;92749.31;;;7.60;71.13
52249;BME280;38541;48.130;8.378;2023-04-27T05:05:20;92754.84;;;7.63;71.05
52249;BME280;38541;48.130;8.378;2023-04-27T05:07:46;92752.31;;;7.68;71.48
52249;BME280;38541;48.130;8.378;2023-04-27T05:10:13;92758.00;;;7.65;70.77
52249;BME280;38541;48.130;8.378;2023-04-27T05:12:39;92751.50;;;7.68;70.60
52249;BME280;38541;48.130;8.378;2023-04-27T05:15:07;92745.78;;;7.71;70.84
52249;BME280;38541;48.130;8.378;2023-04-27T05:17:33;92745.38;;;7.79;71.11
52249;BME280;38541;48.130;8.378;2023-04-27T05:20:00;92748.75;;;7.80;70.72
52249;BME280;38541;48.130;8.378;2023-04-27T05:22:27;92750.88;;;7.83;70.79
52249;BME280;38541;48.130;8.378;2023-04-27T05:24:53;92754.63;;;7.87;71.09
52249;BME280;38541;48.130;8.378;2023-04-27T05:27:21;92755.94;;;7.90;70.33
52249;BME280;38541;48.130;8.378;2023-04-27T05:29:47;92762.50;;;7.92;70.68
52249;BME280;38541;48.130;8.378;2023-04-27T05:32:14;92762.25;;;7.94;70.49
52249;BME280;38541;48.130;8.378;2023-04-27T05:34:41;92767.06;;;8.02;70.23
52249;BME280;38541;48.130;8.378;2023-04-27T05:37:12;92765.59;;;8.11;70.50
52249;BME280;38541;48.130;8.378;2023-04-27T05:39:39;92757.81;;;8.17;69.94
52249;BME280;38541;48.130;8.378;2023-04-27T05:42:06;92753.34;;;8.17;70.22
52249;BME280;38541;48.130;8.378;2023-04-27T05:44:32;92761.75;;;8.19;70.51
52249;BME280;38541;48.130;8.378;2023-04-27T05:46:59;92758.69;;;8.27;70.10
52249;BME280;38541;48.130;8.378;2023-04-27T05:49:25;92765.56;;;8.34;69.93
52249;BME280;38541;48.130;8.378;2023-04-27T05:51:52;92766.66;;;8.43;69.99
52249;BME280;38541;48.130;8.378;2023-04-27T05:54:18;92769.34;;;8.48;69.49
52249;BME280;38541;48.130;8.378;2023-04-27T05:56:45;92778.31;;;8.52;69.49
52249;BME280;38541;48.130;8.378;2023-04-27T05:59:12;92772.88;;;8.59;69.31
52249;BME280;38541;48.130;8.378;2023-04-27T06:01:39;92767.69;;;8.64;68.96
52249;BME280;38541;48.130;8.378;2023-04-27T06:04:05;92775.34;;;8.71;69.14
52249;BME280;38541;48.130;8.378;2023-04-27T06:06:33;92777.75;;;8.78;69.11
52249;BME280;38541;48.130;8.378;2023-04-27T06:09:00;92779.13;;;8.85;68.15
52249;BME280;38541;48.130;8.378;2023-04-27T06:11:27;92784.94;;;8.93;67.91
52249;BME280;38541;48.130;8.378;2023-04-27T06:13:53;92785.03;;;9.03;66.64
52249;BME280;38541;48.130;8.378;2023-04-27T06:16:20;92784.03;;;9.09;66.71
52249;BME280;38541;48.130;8.378;2023-04-27T06:18:49;92793.50;;;9.16;65.78
52249;BME280;38541;48.130;8.378;2023-04-27T06:21:16;92804.81;;;9.21;65.38
52249;BME280;38541;48.130;8.378;2023-04-27T06:23:43;92795.16;;;9.27;65.06
52249;BME280;38541;48.130;8.378;2023-04-27T06:26:10;92795.97;;;9.33;65.17
52249;BME280;38541;48.130;8.378;2023-04-27T06:28:37;92794.13;;;9.33;64.56
52249;BME280;38541;48.130;8.378;2023-04-27T06:31:04;92804.69;;;9.38;63.98
52249;BME280;38541;48.130;8.378;2023-04-27T06:33:32;92809.13;;;9.43;64.46
52249;BME280;38541;48.130;8.378;2023-04-27T06:35:59;92819.72;;;9.53;65.27
52249;BME280;38541;48.130;8.378;2023-04-27T06:38:26;92824.72;;;9.60;65.59
52249;BME280;38541;48.130;8.378;2023-04-27T06:40:53;92822.72;;;9.78;65.55
52249;BME280;38541;48.130;8.378;2023-04-27T06:43:19;92823.81;;;9.87;65.20
52249;BME280;38541;48.130;8.378;2023-04-27T06:45:45;92817.81;;;9.97;64.71
52249;BME280;38541;48.130;8.378;2023-04-27T06:48:12;92824.44;;;10.10;64.17
52249;BME280;38541;48.130;8.378;2023-04-27T06:50:39;92824.22;;;10.22;62.33
52249;BME280;38541;48.130;8.378;2023-04-27T06:53:05;92819.28;;;10.36;62.33
52249;BME280;38541;48.130;8.378;2023-04-27T06:55:32;92818.56;;;10.46;62.38
52249;BME280;38541;48.130;8.378;2023-04-27T06:57:58;92816.91;;;10.39;61.49
52249;BME280;38541;48.130;8.378;2023-04-27T07:00:25;92812.72;;;10.38;61.89
52249;BME280;38541;48.130;8.378;2023-04-27T07:02:52;92811.44;;;10.41;61.39
52249;BME280;38541;48.130;8.378;2023-04-27T07:05:19;92817.75;;;10.50;60.79
52249;BME280;38541;48.130;8.378;2023-04-27T07:07:45;92806.25;;;10.62;60.16
52249;BME280;38541;48.130;8.378;2023-04-27T07:10:11;92815.19;;;10.71;58.86
52249;BME280;38541;48.130;8.378;2023-04-27T07:12:38;92811.00;;;10.85;58.53
52249;BME280;38541;48.130;8.378;2023-04-27T07:15:06;92818.91;;;10.91;57.95
52249;BME280;38541;48.130;8.378;2023-04-27T07:17:32;92818.13;;;11.06;57.55
52249;BME280;38541;48.130;8.378;2023-04-27T07:20:02;92813.38;;;11.23;57.60
52249;BME280;38541;48.130;8.378;2023-04-27T07:22:31;92811.53;;;11.29;56.17
52249;BME280;38541;48.130;8.378;2023-04-27T07:24:58;92816.28;;;11.32;56.86
52249;BME280;38541;48.130;8.378;2023-04-27T07:27:24;92807.56;;;11.58;56.72
52249;BME280;38541;48.130;8.378;2023-04-27T07:29:51;92806.75;;;11.67;55.96
52249;BME280;38541;48.130;8.378;2023-04-27T07:32:18;92799.91;;;11.61;56.19
52249;BME280;38541;48.130;8.378;2023-04-27T07:34:45;92801.53;;;11.47;56.21
52249;BME280;38541;48.130;8.378;2023-04-27T07:37:20;92802.56;;;11.51;56.54
52249;BME280;38541;48.130;8.378;2023-04-27T07:39:50;92800.97;;;11.55;55.76
52249;BME280;38541;48.130;8.378;2023-04-27T07:42:20;92796.78;;;11.49;55.42
52249;BME280;38541;48.130;8.378;2023-04-27T07:44:50;92806.50;;;11.48;55.83
52249;BME280;38541;48.130;8.378;2023-04-27T07:47:17;92807.31;;;11.54;55.74
52249;BME280;38541;48.130;8.378;2023-04-27T07:49:44;92805.44;;;11.65;55.53
52249;BME280;38541;48.130;8.378;2023-04-27T07:52:11;92801.72;;;11.81;55.75
52249;BME280;38541;48.130;8.378;2023-04-27T07:54:38;92801.69;;;11.87;54.27
52249;BME280;38541;48.130;8.378;2023-04-27T07:57:08;92805.09;;;11.92;54.94
52249;BME280;38541;48.130;8.378;2023-04-27T07:59:36;92810.34;;;12.03;54.98
52249;BME280;38541;48.130;8.378;2023-04-27T08:02:03;92801.84;;;12.21;54.87
52249;BME280;38541;48.130;8.378;2023-04-27T08:04:44;92804.41;;;12.42;54.03
52249;BME280;38541;48.130;8.378;2023-04-27T08:07:12;92804.44;;;12.32;54.39
52249;BME280;38541;48.130;8.378;2023-04-27T08:09:39;92808.72;;;12.22;53.26
52249;BME280;38541;48.130;8.378;2023-04-27T08:12:06;92805.53;;;12.20;54.84
52249;BME280;38541;48.130;8.378;2023-04-27T08:14:35;92816.53;;;12.43;54.24
52249;BME280;38541;48.130;8.378;2023-04-27T08:17:02;92813.44;;;12.25;53.84
52249;BME280;38541;48.130;8.378;2023-04-27T08:19:28;92816.06;;;12.20;53.91
52249;BME280;38541;48.130;8.378;2023-04-27T08:21:55;92813.47;;;12.15;54.43
52249;BME280;38541;48.130;8.378;2023-04-27T08:24:21;92803.38;;;12.33;53.63
52249;BME280;38541;48.130;8.378;2023-04-27T08:26:48;92811.25;;;12.38;53.60
52249;BME280;38541;48.130;8.378;2023-04-27T08:29:14;92818.16;;;12.29;54.39
52249;BME280;38541;48.130;8.378;2023-04-27T08:31:55;92814.94;;;12.37;54.20
52249;BME280;38541;48.130;8.378;2023-04-27T08:34:22;92815.97;;;12.41;53.54
52249;BME280;38541;48.130;8.378;2023-04-27T08:36:49;92812.25;;;12.52;53.86
52249;BME280;38541;48.130;8.378;2023-04-27T08:39:15;92809.13;;;12.40;54.17
52249;BME280;38541;48.130;8.378;2023-04-27T08:41:43;92807.03;;;12.42;54.15
52249;BME280;38541;48.130;8.378;2023-04-27T08:44:09;92795.00;;;12.20;53.77
52249;BME280;38541;48.130;8.378;2023-04-27T08:46:37;92799.72;;;12.29;53.99
52249;BME280;38541;48.130;8.378;2023-04-27T08:49:04;92811.22;;;12.48;53.90
52249;BME280;38541;48.130;8.378;2023-04-27T08:51:32;92805.19;;;12.88;53.79
52249;BME280;38541;48.130;8.378;2023-04-27T08:53:58;92800.28;;;13.10;53.69
52249;BME280;38541;48.130;8.378;2023-04-27T08:56:26;92796.19;;;13.29;52.56
52249;BME280;38541;48.130;8.378;2023-04-27T08:58:54;92797.38;;;13.47;52.38
52249;BME280;38541;48.130;8.378;2023-04-27T09:01:22;92794.66;;;13.52;50.63
52249;BME280;38541;48.130;8.378;2023-04-27T09:03:59;92797.16;;;13.67;50.75
52249;BME280;38541;48.130;8.378;2023-04-27T09:06:29;92808.66;;;13.82;51.56
52249;BME280;38541;48.130;8.378;2023-04-27T09:08:56;92801.56;;;14.02;50.50
52249;BME280;38541;48.130;8.378;2023-04-27T09:11:34;92797.19;;;14.16;50.43
52249;BME280;38541;48.130;8.378;2023-04-27T09:14:14;92798.56;;;14.33;50.16
52249;BME280;38541;48.130;8.378;2023-04-27T09:16:41;92800.50;;;14.46;50.17
52249;BME280;38541;48.130;8.378;2023-04-27T09:19:08;92801.91;;;14.38;50.06
52249;BME280;38541;48.130;8.378;2023-04-27T09:21:35;92810.22;;;14.32;50.01
52249;BME280;38541;48.130;8.378;2023-04-27T09:24:12;92811.66;;;14.43;50.88
52249;BME280;38541;48.130;8.378;2023-04-27T09:26:39;92807.25;;;14.58;50.55
52249;BME280;38541;48.130;8.378;2023-04-27T09:29:08;92810.69;;;14.77;50.21
52249;BME280;38541;48.130;8.378;2023-04-27T09:31:35;92809.63;;;14.78;51.34
52249;BME280;38541;48.130;8.378;2023-04-27T09:34:02;92814.34;;;14.81;51.69
52249;BME280;38541;48.130;8.378;2023-04-27T09:36:29;92821.06;;;14.93;51.32
52249;BME280;38541;48.130;8.378;2023-04-27T09:38:57;92824.47;;;14.93;51.21
52249;BME280;38541;48.130;8.378;2023-04-27T09:41:24;92820.84;;;14.89;50.40
52249;BME280;38541;48.130;8.378;2023-04-27T09:43:52;92817.94;;;14.91;51.56
52249;BME280;38541;48.130;8.378;2023-04-27T09:46:23;92821.59;;;14.70;50.43
52249;BME280;38541;48.130;8.378;2023-04-27T09:48:51;92812.59;;;14.52;51.88
52249;BME280;38541;48.130;8.378;2023-04-27T09:51:18;92807.16;;;14.44;51.21
52249;BME280;38541;48.130;8.378;2023-04-27T09:53:50;92815.94;;;14.39;50.96
52249;BME280;38541;48.130;8.378;2023-04-27T10:01:56;92814.50;;;14.47;50.14
52249;BME280;38541;48.130;8.378;2023-04-27T10:07:05;92813.69;;;14.27;51.22
52249;BME280;38541;48.130;8.378;2023-04-27T10:09:39;92820.16;;;14.40;50.75
52249;BME280;38541;48.130;8.378;2023-04-27T10:12:26;92811.03;;;14.51;48.99
52249;BME280;38541;48.130;8.378;2023-04-27T10:14:59;92813.97;;;14.69;50.31
52249;BME280;38541;48.130;8.378;2023-04-27T10:17:36;92806.59;;;15.04;49.67
52249;BME280;38541;48.130;8.378;2023-04-27T10:20:05;92807.25;;;15.62;48.08
52249;BME280;38541;48.130;8.378;2023-04-27T10:22:47;92810.03;;;15.71;46.75
52249;BME280;38541;48.130;8.378;2023-04-27T10:27:47;92804.91;;;16.08;46.84
52249;BME280;38541;48.130;8.378;2023-04-27T10:30:16;92807.84;;;16.20;47.91
52249;BME280;38541;48.130;8.378;2023-04-27T10:32:57;92806.25;;;16.05;48.15
52249;BME280;38541;48.130;8.378;2023-04-27T10:35:56;92809.00;;;15.86;47.86
52249;BME280;38541;48.130;8.378;2023-04-27T10:38:27;92820.59;;;15.57;47.26
52249;BME280;38541;48.130;8.378;2023-04-27T10:40:58;92815.91;;;15.35;47.77
52249;BME280;38541;48.130;8.378;2023-04-27T10:43:30;92815.38;;;15.19;48.84
52249;BME280;38541;48.130;8.378;2023-04-27T10:46:11;92814.19;;;15.11;48.00
52249;BME280;38541;48.130;8.378;2023-04-27T10:48:42;92816.19;;;15.19;48.43
52249;BME280;38541;48.130;8.378;2023-04-27T10:51:13;92812.91;;;15.41;47.54
52249;BME280;38541;48.130;8.378;2023-04-27T10:53:40;92810.06;;;15.38;47.45
52249;BME280;38541;48.130;8.378;2023-04-27T10:56:07;92812.00;;;15.32;47.40
52249;BME280;38541;48.130;8.378;2023-04-27T10:58:34;92815.00;;;15.45;47.82
52249;BME280;38541;48.130;8.378;2023-04-27T11:01:24;92815.69;;;15.50;47.57
52249;BME280;38541;48.130;8.378;2023-04-27T11:03:58;92813.66;;;15.28;47.87
52249;BME280;38541;48.130;8.378;2023-04-27T11:06:25;92807.06;;;15.45;47.91
52249;BME280;38541;48.130;8.378;2023-04-27T11:08:53;92805.19;;;15.59;48.81
52249;BME280;38541;48.130;8.378;2023-04-27T11:11:20;92808.28;;;15.66;48.54
52249;BME280;38541;48.130;8.378;2023-04-27T11:13:48;92805.78;;;15.89;47.34
52249;BME280;38541;48.130;8.378;2023-04-27T11:16:15;92808.72;;;16.30;46.17
52249;BME280;38541;48.130;8.378;2023-04-27T11:18:42;92804.38;;;16.62;45.15
52249;BME280;38541;48.130;8.378;2023-04-27T11:21:13;92798.06;;;16.72;46.07
52249;BME280;38541;48.130;8.378;2023-04-27T11:23:40;92802.44;;;16.76;46.58
52249;BME280;38541;48.130;8.378;2023-04-27T11:26:20;92804.38;;;16.62;44.68
52249;BME280;38541;48.130;8.378;2023-04-27T11:29:03;92816.66;;;16.44;45.33
52249;BME280;38541;48.130;8.378;2023-04-27T11:31:47;92810.97;;;16.36;44.84
52249;BME280;38541;48.130;8.378;2023-04-27T11:34:22;92806.38;;;16.00;44.14
52249;BME280;38541;48.130;8.378;2023-04-27T11:37:02;92793.03;;;15.91;46.30
52249;BME280;38541;48.130;8.378;2023-04-27T11:39:37;92800.03;;;15.82;45.86
52249;BME280;38541;48.130;8.378;2023-04-27T11:42:15;92795.31;;;15.79;45.59
52249;BME280;38541;48.130;8.378;2023-04-27T11:44:42;92798.88;;;15.74;46.76
52249;BME280;38541;48.130;8.378;2023-04-27T11:47:15;92792.44;;;15.94;46.34
52249;BME280;38541;48.130;8.378;2023-04-27T11:49:48;92798.81;;;16.21;45.77
52249;BME280;38541;48.130;8.378;2023-04-27T11:52:15;92791.03;;;16.39;45.70
52249;BME280;38541;48.130;8.378;2023-04-27T11:54:49;92790.63;;;16.60;45.04
52249;BME280;38541;48.130;8.378;2023-04-27T11:57:29;92788.22;;;16.72;44.46
52249;BME280;38541;48.130;8.378;2023-04-27T11:59:57;92794.28;;;16.87;46.03
52249;BME280;38541;48.130;8.378;2023-04-27T12:02:26;92789.78;;;16.73;46.43
52249;BME280;38541;48.130;8.378;2023-04-27T12:04:53;92791.88;;;16.62;45.60
52249;BME280;38541;48.130;8.378;2023-04-27T12:07:20;92791.34;;;16.74;45.75
52249;BME280;38541;48.130;8.378;2023-04-27T12:09:47;92796.81;;;16.92;45.83
52249;BME280;38541;48.130;8.378;2023-04-27T12:12:13;92791.19;;;17.30;45.61
52249;BME280;38541;48.130;8.378;2023-04-27T12:14:44;92790.63;;;17.65;45.53
52249;BME280;38541;48.130;8.378;2023-04-27T12:17:10;92782.13;;;17.54;43.83
52249;BME280;38541;48.130;8.378;2023-04-27T12:19:37;92781.34;;;17.31;43.68
52249;BME280;38541;48.130;8.378;2023-04-27T12:22:04;92781.66;;;17.06;45.54
52249;BME280;38541;48.130;8.378;2023-04-27T12:24:30;92783.88;;;16.76;44.99
52249;BME280;38541;48.130;8.378;2023-04-27T12:26:57;92776.44;;;16.64;45.46
52249;BME280;38541;48.130;8.378;2023-04-27T12:29:24;92774.59;;;16.65;46.52
52249;BME280;38541;48.130;8.378;2023-04-27T12:31:51;92785.81;;;16.62;45.70
52249;BME280;38541;48.130;8.378;2023-04-27T12:34:18;92775.69;;;16.64;44.63
52249;BME280;38541;48.130;8.378;2023-04-27T12:36:45;92776.22;;;16.75;46.31
52249;BME280;38541;48.130;8.378;2023-04-27T12:39:17;92784.16;;;16.89;45.09
52249;BME280;38541;48.130;8.378;2023-04-27T12:41:46;92779.47;;;17.08;43.79
52249;BME280;38541;48.130;8.378;2023-04-27T12:44:13;92786.25;;;17.37;44.24
52249;BME280;38541;48.130;8.378;2023-04-27T12:46:41;92784.03;;;17.62;43.57
52249;BME280;38541;48.130;8.378;2023-04-27T12:49:09;92784.25;;;17.75;43.20
52249;BME280;38541;48.130;8.378;2023-04-27T12:51:36;92786.97;;;17.83;41.22
52249;BME280;38541;48.130;8.378;2023-04-27T12:54:03;92789.72;;;17.78;41.78
52249;BME280;38541;48.130;8.378;2023-04-27T12:56:29;92785.03;;;17.75;40.68
52249;BME280;38541;48.130;8.378;2023-04-27T12:58:57;92782.84;;;17.77;41.73
52249;BME280;38541;48.130;8.378;2023-04-27T13:01:24;92779.28;;;17.82;41.21
52249;BME280;38541;48.130;8.378;2023-04-27T13:03:54;92775.81;;;17.73;42.42
52249;BME280;38541;48.130;8.378;2023-04-27T13:06:21;92775.63;;;17.69;42.66
52249;BME280;38541;48.130;8.378;2023-04-27T13:08:48;92780.66;;;17.48;41.79
52249;BME280;38541;48.130;8.378;2023-04-27T13:11:16;92788.19;;;17.23;41.49
52249;BME280;38541;48.130;8.378;2023-04-27T13:13:44;92786.47;;;17.04;41.97
52249;BME280;38541;48.130;8.378;2023-04-27T13:16:11;92783.22;;;17.07;42.06
52249;BME280;38541;48.130;8.378;2023-04-27T13:18:38;92783.09;;;17.13;42.09
52249;BME280;38541;48.130;8.378;2023-04-27T13:21:07;92785.75;;;17.13;41.34